Time;durP1;ratioP1;P1;durP2;ratioP2;P2;SDS_P1;SDS_P2;PMS_P1;PMS_P2;Temp;Humidity;BMP_temperature;BMP_pressure;BME280_temperature;BME280_humidity;BME280_pressure;Samples;Min_cycle;Max_cycle;Signal;HPM_P1;HPM_P2
2022/01/04 00:01:14;;;;;;;0.63;0.30;;;11.20;99.90;;;;;;5076930;28;20027;-49
2022/01/04 00:03:43;;;;;;;2.47;0.40;;;11.20;99.90;;;;;;5094478;28;20020;-48
2022/01/04 00:06:09;;;;;;;0.30;0.20;;;11.20;99.90;;;;;;5075254;28;20490;-50
2022/01/04 00:08:35;;;;;;;0.90;0.30;;;11.10;99.90;;;;;;5076789;28;20020;-47
2022/01/04 00:11:16;;;;;;;3.83;0.30;;;11.10;99.90;;;;;;5094173;28;20056;-46
2022/01/04 00:13:42;;;;;;;3.97;0.40;;;11.10;99.90;;;;;;5094419;28;20020;-46
2022/01/04 00:16:10;;;;;;;2.75;0.35;;;11.20;99.90;;;;;;5093871;28;20074;-46
2022/01/04 00:18:36;;;;;;;0.25;0.20;;;11.10;99.90;;;;;;5093883;28;20042;-49
2022/01/04 00:21:01;;;;;;;1.08;0.30;;;11.00;99.90;;;;;;5093826;28;20034;-47
2022/01/04 00:23:27;;;;;;;0.63;0.45;;;11.00;99.90;;;;;;5076109;28;20016;-49
2022/01/04 00:25:53;;;;;;;2.95;0.63;;;11.00;99.90;;;;;;5093771;28;20031;-46
2022/01/04 00:31:40;;;;;;;0.55;0.40;;;11.10;99.90;;;;;;5094043;28;20023;-49
2022/01/04 00:34:06;;;;;;;0.70;0.20;;;11.00;99.90;;;;;;5075732;28;20024;-53
2022/01/04 00:36:33;;;;;;;1.35;0.40;;;11.00;99.90;;;;;;5075791;28;20028;-51
2022/01/04 00:38:58;;;;;;;0.57;0.30;;;11.10;99.90;;;;;;5093663;28;20020;-47
2022/01/04 00:41:24;;;;;;;1.02;0.22;;;11.00;99.90;;;;;;5093966;28;20027;-48
2022/01/04 00:43:50;;;;;;;0.98;0.30;;;11.00;99.90;;;;;;5075518;28;20024;-47
2022/01/04 00:46:17;;;;;;;1.35;0.43;;;10.90;99.90;;;;;;5093813;28;20097;-50
2022/01/04 00:51:28;;;;;;;5.93;1.30;;;10.80;99.90;;;;;;5094191;28;20054;-50
2022/01/04 00:53:53;;;;;;;0.43;0.20;;;10.90;99.90;;;;;;5075391;28;20028;-51
2022/01/04 00:56:19;;;;;;;1.13;0.32;;;10.90;99.90;;;;;;5075273;28;20024;-50
2022/01/04 00:58:44;;;;;;;0.20;0.10;;;10.80;99.90;;;;;;5075486;28;20390;-48
2022/01/04 01:01:10;;;;;;;0.75;0.25;;;10.70;99.90;;;;;;5075704;28;20020;-47
2022/01/04 01:03:36;;;;;;;1.08;0.30;;;10.60;99.90;;;;;;5065730;28;20099;-46
2022/01/04 01:06:01;;;;;;;0.75;0.30;;;10.50;99.90;;;;;;5071763;28;20025;-47
2022/01/04 01:08:27;;;;;;;1.60;0.30;;;10.60;99.90;;;;;;5055148;28;20024;-46
2022/01/04 01:10:52;;;;;;;0.32;0.20;;;10.60;99.90;;;;;;5055544;28;20029;-46
2022/01/04 01:13:19;;;;;;;0.68;0.30;;;10.70;99.90;;;;;;5073167;28;20028;-46
2022/01/04 01:15:45;;;;;;;0.98;0.20;;;10.80;99.90;;;;;;5073157;28;20028;-49
2022/01/04 01:18:13;;;;;;;3.63;1.33;;;10.80;99.90;;;;;;5055195;28;20026;-47
2022/01/04 01:20:39;;;;;;;1.48;0.57;;;10.70;99.90;;;;;;5055351;28;20028;-47
2022/01/04 01:23:05;;;;;;;0.50;0.20;;;10.80;99.90;;;;;;5059368;28;20031;-46
2022/01/04 01:25:31;;;;;;;0.40;0.32;;;10.80;99.90;;;;;;5091060;28;20050;-48
2022/01/04 01:27:56;;;;;;;0.70;0.35;;;10.80;99.90;;;;;;5071659;28;20031;-48
2022/01/04 01:30:23;;;;;;;0.70;0.45;;;10.80;99.90;;;;;;5072947;28;20162;-47
2022/01/04 01:32:50;;;;;;;4.68;0.80;;;10.80;99.90;;;;;;5071669;28;20025;-48
2022/01/04 01:35:15;;;;;;;1.27;0.50;;;10.70;99.90;;;;;;5071637;28;20032;-46
2022/01/04 01:37:41;;;;;;;1.45;0.40;;;10.60;99.90;;;;;;5072853;28;20047;-46
2022/01/04 01:40:07;;;;;;;0.85;0.28;;;10.60;99.90;;;;;;5071853;28;20056;-46
2022/01/04 01:42:32;;;;;;;2.90;0.30;;;10.60;99.90;;;;;;5074278;28;20470;-49
2022/01/04 01:44:58;;;;;;;1.35;0.32;;;10.70;99.90;;;;;;5075374;28;20020;-46
2022/01/04 01:48:15;;;;;;;1.65;0.43;;;10.60;99.90;;;;;;5075347;28;20031;-47
2022/01/04 01:50:40;;;;;;;3.60;1.40;;;10.60;99.90;;;;;;5059454;28;20024;-47
2022/01/04 01:53:06;;;;;;;9.25;2.72;;;10.60;99.90;;;;;;5076648;28;20020;-47
2022/01/04 01:55:32;;;;;;;6.97;3.60;;;10.40;99.90;;;;;;5075199;28;20028;-46
2022/01/04 01:57:58;;;;;;;4.18;1.90;;;10.40;99.90;;;;;;5076317;28;20020;-47
2022/01/04 02:00:26;;;;;;;5.05;2.28;;;10.30;99.90;;;;;;5076653;28;20063;-46
2022/01/04 02:02:52;;;;;;;4.18;1.50;;;10.10;99.90;;;;;;5076354;28;20542;-46
2022/01/04 02:05:18;;;;;;;0.93;0.82;;;10.00;99.90;;;;;;5075079;28;20089;-46
2022/01/04 02:07:44;;;;;;;0.98;0.43;;;10.00;99.90;;;;;;5059285;28;20401;-51
2022/01/04 02:10:11;;;;;;;0.30;0.30;;;10.10;99.90;;;;;;5075683;28;20463;-48
2022/01/04 02:12:44;;;;;;;0.80;0.25;;;10.10;99.90;;;;;;5076142;28;20031;-47
2022/01/04 02:15:12;;;;;;;1.20;0.10;;;10.20;99.90;;;;;;5076105;28;20017;-49
2022/01/04 02:17:39;;;;;;;0.43;0.15;;;10.40;99.90;;;;;;5076403;28;20017;-47
2022/01/04 02:20:06;;;;;;;0.35;0.30;;;10.50;99.90;;;;;;5058181;28;20490;-49
2022/01/04 02:22:33;;;;;;;0.65;0.28;;;10.30;99.90;;;;;;5076569;28;20020;-51
2022/01/04 02:24:59;;;;;;;2.92;0.40;;;10.30;99.90;;;;;;5074896;28;20029;-47
2022/01/04 02:27:25;;;;;;;0.82;0.80;;;10.20;99.90;;;;;;5075296;28;20031;-49
2022/01/04 02:29:54;;;;;;;1.30;1.20;;;10.10;99.90;;;;;;5074889;28;20025;-49
2022/01/04 02:32:19;;;;;;;0.90;0.90;;;10.00;99.90;;;;;;5074913;28;20032;-50
2022/01/04 02:34:50;;;;;;;3.53;1.75;;;9.80;99.90;;;;;;5075892;28;20103;-47
2022/01/04 02:37:24;;;;;;;2.03;1.25;;;9.70;99.90;;;;;;5057663;28;20032;-47
2022/01/04 02:39:51;;;;;;;5.30;2.65;;;9.60;99.90;;;;;;5057839;28;20020;-46
2022/01/04 02:42:17;;;;;;;2.97;1.15;;;9.50;99.90;;;;;;5075793;28;20044;-49
2022/01/04 02:44:43;;;;;;;1.75;0.40;;;9.50;99.90;;;;;;5075349;28;20106;-51
2022/01/04 02:47:09;;;;;;;2.85;1.40;;;9.60;99.90;;;;;;5074340;28;20031;-51
2022/01/04 02:49:35;;;;;;;0.82;0.70;;;9.60;99.90;;;;;;5075506;28;20065;-53
2022/01/04 02:52:00;;;;;;;0.45;0.30;;;9.60;99.90;;;;;;5074504;28;20060;-53
2022/01/04 02:54:26;;;;;;;1.98;0.30;;;9.60;99.90;;;;;;5074412;28;20024;-49
2022/01/04 02:56:52;;;;;;;2.17;0.40;;;9.60;99.90;;;;;;5073979;28;20032;-47
2022/01/04 02:59:18;;;;;;;0.95;0.40;;;9.70;99.90;;;;;;5073994;28;20023;-46
2022/01/04 03:01:43;;;;;;;4.25;1.02;;;9.80;99.90;;;;;;5073993;28;20474;-46
2022/01/04 03:04:09;;;;;;;0.65;0.30;;;9.80;99.90;;;;;;5075170;28;20025;-48
2022/01/04 03:06:36;;;;;;;0.80;0.80;;;9.80;99.90;;;;;;5073798;28;20111;-46
2022/01/04 03:09:04;;;;;;;2.35;0.65;;;9.80;99.90;;;;;;5074986;28;20052;-47
2022/01/04 03:11:30;;;;;;;1.63;0.90;;;9.70;99.90;;;;;;5074364;28;20035;-46
2022/01/04 03:13:56;;;;;;;1.27;0.60;;;9.80;99.90;;;;;;5074313;28;20039;-47
2022/01/04 03:16:21;;;;;;;0.93;0.65;;;9.70;99.90;;;;;;5073848;28;20141;-46
2022/01/04 03:21:28;;;;;;;1.67;0.73;;;9.70;99.90;;;;;;5075159;28;20020;-47
2022/01/04 03:23:54;;;;;;;1.73;0.80;;;9.60;99.90;;;;;;5074770;28;20017;-50
2022/01/04 03:26:19;;;;;;;2.70;0.90;;;9.60;99.90;;;;;;5073349;28;20056;-47
2022/01/04 03:28:45;;;;;;;1.45;0.70;;;9.60;99.90;;;;;;5073449;28;20028;-47
2022/01/04 03:31:11;;;;;;;2.75;0.40;;;9.60;99.90;;;;;;5073428;28;20032;-46
2022/01/04 03:33:37;;;;;;;0.65;0.38;;;9.70;99.90;;;;;;5073269;28;20029;-46
2022/01/04 03:36:04;;;;;;;0.82;0.50;;;9.70;99.90;;;;;;5073485;28;20368;-50
2022/01/04 03:38:31;;;;;;;0.88;0.32;;;9.70;99.90;;;;;;5073456;28;20092;-47
2022/01/04 03:40:56;;;;;;;2.03;0.60;;;9.80;99.90;;;;;;5056734;28;20032;-47
2022/01/04 03:43:22;;;;;;;0.40;0.40;;;9.70;99.90;;;;;;5073361;28;20021;-47
2022/01/04 03:45:51;;;;;;;1.80;0.52;;;9.60;99.90;;;;;;5074257;28;20116;-47
2022/01/04 03:48:17;;;;;;;0.80;0.43;;;9.60;99.90;;;;;;5073033;28;20390;-46
2022/01/04 03:50:43;;;;;;;0.30;0.30;;;9.60;99.90;;;;;;5073053;28;20027;-46
2022/01/04 03:53:09;;;;;;;2.65;0.70;;;9.70;99.90;;;;;;5074142;28;20495;-47
2022/01/04 03:55:34;;;;;;;0.40;0.40;;;9.60;99.90;;;;;;5072647;28;20083;-47
2022/01/04 03:58:00;;;;;;;1.60;0.50;;;9.70;99.90;;;;;;5074033;28;20108;-48
2022/01/04 04:00:26;;;;;;;2.60;1.45;;;9.70;99.90;;;;;;5073727;28;20035;-47
2022/01/04 04:02:52;;;;;;;4.00;0.40;;;9.80;99.90;;;;;;5072857;28;20020;-46
2022/01/04 04:08:40;;;;;;;1.30;0.82;;;9.70;99.90;;;;;;5074210;28;20051;-46
2022/01/04 04:11:05;;;;;;;1.90;1.00;;;9.70;99.90;;;;;;5073873;28;20028;-46
2022/01/04 04:13:31;;;;;;;1.92;0.60;;;9.60;99.90;;;;;;5073512;28;20123;-46
2022/01/04 04:15:56;;;;;;;1.55;0.80;;;9.60;99.90;;;;;;5072403;28;20060;-47
2022/01/04 04:18:22;;;;;;;1.80;0.50;;;9.50;99.90;;;;;;5073808;28;20033;-48
2022/01/04 04:20:48;;;;;;;3.45;0.77;;;9.50;99.90;;;;;;5073742;28;20023;-46
2022/01/04 04:23:13;;;;;;;1.40;0.60;;;9.50;99.90;;;;;;5073673;28;20087;-47
2022/01/04 04:25:40;;;;;;;3.25;1.75;;;9.50;99.90;;;;;;5072298;28;20028;-48
2022/01/04 04:28:06;;;;;;;4.65;0.70;;;9.60;99.90;;;;;;5072378;28;20471;-47
2022/01/04 04:30:32;;;;;;;2.53;0.82;;;9.50;99.90;;;;;;5073672;28;20111;-47
2022/01/04 04:32:58;;;;;;;0.80;0.50;;;9.50;99.90;;;;;;5072550;28;20029;-47
2022/01/04 04:35:24;;;;;;;1.17;0.80;;;9.40;99.90;;;;;;5072551;28;20070;-49
2022/01/04 04:37:49;;;;;;;2.45;0.68;;;9.50;99.90;;;;;;5072222;28;20089;-47
2022/01/04 04:40:15;;;;;;;1.50;0.88;;;9.40;99.90;;;;;;5073479;28;20107;-47
2022/01/04 04:42:41;;;;;;;2.60;0.82;;;9.40;99.90;;;;;;5072637;28;20047;-47
2022/01/04 04:45:07;;;;;;;2.40;1.30;;;9.50;99.90;;;;;;5072620;28;20049;-47
2022/01/04 04:47:33;;;;;;;2.72;0.70;;;9.50;99.90;;;;;;5073902;28;20020;-52
2022/01/04 04:50:00;;;;;;;2.83;0.85;;;9.40;99.90;;;;;;5072247;28;20029;-51
2022/01/04 04:52:25;;;;;;;2.53;1.48;;;9.50;99.90;;;;;;5072458;28;20024;-48
2022/01/04 04:54:51;;;;;;;2.85;1.58;;;9.50;99.90;;;;;;5072498;28;20055;-51
2022/01/04 04:57:17;;;;;;;3.25;1.70;;;9.40;99.90;;;;;;5073177;28;20025;-46
2022/01/04 04:59:42;;;;;;;1.60;1.33;;;9.40;99.90;;;;;;5072343;28;20024;-46
2022/01/04 05:02:08;;;;;;;1.52;1.17;;;9.40;99.90;;;;;;5072078;28;20028;-46
2022/01/04 05:04:34;;;;;;;3.47;1.60;;;9.40;99.90;;;;;;5072295;28;20059;-47
2022/01/04 05:07:00;;;;;;;5.47;2.38;;;9.30;99.90;;;;;;5071904;28;20024;-47
2022/01/04 05:09:26;;;;;;;6.75;2.05;;;9.30;99.90;;;;;;5071893;28;20024;-46
2022/01/04 05:11:52;;;;;;;5.03;1.95;;;9.40;99.90;;;;;;5073151;28;20095;-46
2022/01/04 05:14:17;;;;;;;3.08;1.60;;;9.30;99.90;;;;;;5073152;28;20024;-51
2022/01/04 05:16:43;;;;;;;3.33;1.60;;;9.20;99.90;;;;;;5071808;28;20048;-46
2022/01/04 05:19:09;;;;;;;4.32;1.83;;;9.30;99.90;;;;;;5076816;28;20032;-46
2022/01/04 05:21:35;;;;;;;3.78;1.77;;;9.30;99.90;;;;;;5075811;28;20021;-48
2022/01/04 05:24:00;;;;;;;3.70;1.67;;;9.40;99.90;;;;;;5077301;28;20076;-48
2022/01/04 05:26:26;;;;;;;3.03;1.70;;;9.30;99.90;;;;;;5077177;28;20111;-46
2022/01/04 05:28:52;;;;;;;3.10;1.95;;;9.40;99.90;;;;;;5075795;28;20025;-46
2022/01/04 05:31:17;;;;;;;2.72;2.22;;;9.40;99.90;;;;;;5075658;28;20071;-46
2022/01/04 05:33:43;;;;;;;4.70;2.22;;;9.40;99.90;;;;;;5076786;28;20052;-47
2022/01/04 05:36:08;;;;;;;5.47;2.53;;;9.40;99.90;;;;;;5076184;28;20028;-49
2022/01/04 05:38:34;;;;;;;5.13;2.60;;;9.30;99.90;;;;;;5089620;28;20031;-46
2022/01/04 05:41:00;;;;;;;4.35;2.50;;;9.30;99.90;;;;;;5078934;28;20545;-46
2022/01/04 05:43:25;;;;;;;7.05;2.95;;;9.40;99.90;;;;;;5096903;28;20023;-46
2022/01/04 05:45:51;;;;;;;10.18;3.33;;;9.40;99.90;;;;;;5078685;28;20111;-50
2022/01/04 05:48:21;;;;;;;4.97;2.58;;;9.40;99.90;;;;;;5096856;28;20020;-46
2022/01/04 05:50:47;;;;;;;5.20;3.45;;;9.40;99.90;;;;;;5096639;28;20020;-46
2022/01/04 05:53:14;;;;;;;5.93;3.15;;;9.40;99.90;;;;;;5095897;28;20028;-46
2022/01/04 05:55:39;;;;;;;6.13;3.00;;;9.40;99.90;;;;;;5096435;28;20036;-46
2022/01/04 05:58:07;;;;;;;4.13;2.25;;;9.40;99.90;;;;;;5095521;28;20041;-48
2022/01/04 06:00:33;;;;;;;4.50;2.88;;;9.40;99.90;;;;;;5096617;28;20023;-47
2022/01/04 06:03:00;;;;;;;4.20;2.83;;;9.30;99.90;;;;;;5079572;28;20020;-48
2022/01/04 06:05:29;;;;;;;3.55;2.33;;;9.30;99.90;;;;;;5096586;28;20023;-46
2022/01/04 06:07:55;;;;;;;5.05;2.83;;;9.30;99.90;;;;;;5095146;28;20390;-48
2022/01/04 06:10:21;;;;;;;2.88;1.58;;;9.40;99.90;;;;;;5095232;28;20031;-46
2022/01/04 06:15:14;;;;;;;3.70;1.63;;;9.40;99.90;;;;;;5096620;28;20020;-49
2022/01/04 06:17:44;;;;;;;3.55;1.88;;;9.40;99.90;;;;;;5096181;28;20153;-47
2022/01/04 06:20:12;;;;;;;2.80;1.70;;;9.40;99.90;;;;;;5078510;28;20024;-46
2022/01/04 06:22:38;;;;;;;5.30;2.58;;;9.40;99.90;;;;;;5096297;28;20110;-49
2022/01/04 06:25:06;;;;;;;4.07;2.30;;;9.40;99.90;;;;;;5096149;28;20024;-50
2022/01/04 06:27:31;;;;;;;3.58;1.50;;;9.40;99.90;;;;;;5078317;28;20024;-52
2022/01/04 06:29:58;;;;;;;6.43;2.30;;;9.40;99.90;;;;;;5096388;28;20042;-51
2022/01/04 06:32:24;;;;;;;3.95;2.83;;;9.40;99.90;;;;;;5077964;28;20127;-49
2022/01/04 06:34:50;;;;;;;2.70;2.03;;;9.40;99.90;;;;;;5096244;28;20529;-50
2022/01/04 06:37:16;;;;;;;5.57;1.60;;;9.40;99.90;;;;;;5096178;28;20032;-52
2022/01/04 06:39:43;;;;;;;3.45;1.58;;;9.40;99.90;;;;;;5078037;28;20069;-51
2022/01/04 06:42:09;;;;;;;1.73;1.15;;;9.40;99.90;;;;;;5077684;28;20042;-49
2022/01/04 06:44:35;;;;;;;1.50;1.02;;;9.40;99.90;;;;;;5095888;28;20054;-47
2022/01/04 06:47:01;;;;;;;3.45;1.70;;;9.30;99.90;;;;;;5077851;28;20020;-46
2022/01/04 06:49:27;;;;;;;5.47;2.42;;;9.30;99.90;;;;;;5095751;28;20083;-49
2022/01/04 06:51:52;;;;;;;6.30;3.55;;;9.30;99.90;;;;;;5095690;28;20063;-47
2022/01/04 06:54:19;;;;;;;3.25;1.83;;;9.30;99.90;;;;;;5095685;28;20032;-47
2022/01/04 06:56:46;;;;;;;3.53;1.83;;;9.30;99.90;;;;;;5095752;28;20107;-46
2022/01/04 06:59:12;;;;;;;2.08;1.33;;;9.30;99.90;;;;;;5077341;28;20029;-47
2022/01/04 07:01:37;;;;;;;2.45;1.80;;;9.30;99.90;;;;;;5095406;28;20020;-46
2022/01/04 07:04:05;;;;;;;2.22;1.50;;;9.30;99.90;;;;;;5095645;28;20016;-46
2022/01/04 07:06:31;;;;;;;1.30;1.20;;;9.30;99.90;;;;;;5095237;28;20478;-46
2022/01/04 07:08:57;;;;;;;3.85;1.08;;;9.30;99.90;;;;;;5077644;28;20031;-46
2022/01/04 07:11:22;;;;;;;2.95;1.70;;;9.30;99.90;;;;;;5095508;28;20020;-46
2022/01/04 07:17:10;;;;;;;1.48;1.00;;;9.30;99.90;;;;;;5095178;28;20043;-46
2022/01/04 07:19:35;;;;;;;3.03;1.13;;;9.30;99.90;;;;;;5077877;28;20020;-46
2022/01/04 07:22:01;;;;;;;1.98;1.10;;;9.40;99.90;;;;;;5095056;28;20020;-46
2022/01/04 07:24:27;;;;;;;3.03;1.25;;;9.40;99.90;;;;;;5094973;28;20100;-46
2022/01/04 07:26:53;;;;;;;3.63;1.60;;;9.40;99.90;;;;;;5076831;28;20021;-46
2022/01/04 07:29:18;;;;;;;1.92;1.60;;;9.40;99.90;;;;;;5076779;28;20024;-46
2022/01/04 07:31:44;;;;;;;5.78;1.83;;;9.30;99.90;;;;;;5076695;28;20020;-48
2022/01/04 07:34:10;;;;;;;4.70;1.92;;;9.30;99.90;;;;;;5095083;28;20024;-49
2022/01/04 07:36:35;;;;;;;3.83;2.63;;;9.30;99.90;;;;;;5094642;28;20099;-47
2022/01/04 07:39:01;;;;;;;2.58;1.85;;;9.30;99.90;;;;;;5076574;28;20475;-48
2022/01/04 07:41:27;;;;;;;3.47;1.85;;;9.30;99.90;;;;;;5076051;28;20024;-46
2022/01/04 07:43:53;;;;;;;2.78;1.25;;;9.30;99.90;;;;;;5094686;28;20031;-46
2022/01/04 07:49:58;;;;;;;5.18;2.38;;;9.30;99.90;;;;;;5074553;28;20157;-46
2022/01/04 07:52:23;;;;;;;3.42;1.95;;;9.30;99.90;;;;;;5074202;28;20020;-46
2022/01/04 07:54:49;;;;;;;3.90;2.10;;;9.30;99.90;;;;;;5072963;28;20490;-45
2022/01/04 07:57:15;;;;;;;6.15;2.10;;;9.30;99.90;;;;;;5073120;28;20070;-46
2022/01/04 07:59:40;;;;;;;2.30;1.50;;;9.30;99.90;;;;;;5072976;28;20021;-45
2022/01/04 08:02:07;;;;;;;3.75;1.35;;;9.30;99.90;;;;;;5074310;28;20024;-46
2022/01/04 08:04:33;;;;;;;1.88;1.25;;;9.30;99.90;;;;;;5074227;28;20078;-45
2022/01/04 08:06:59;;;;;;;2.92;1.20;;;9.30;99.90;;;;;;5072648;28;20024;-47
2022/01/04 08:09:25;;;;;;;1.80;1.25;;;9.40;99.90;;;;;;5073131;28;20036;-45
2022/01/04 08:11:51;;;;;;;3.60;1.48;;;9.40;99.90;;;;;;5075709;28;20024;-45
2022/01/04 08:14:17;;;;;;;3.92;1.70;;;9.40;99.90;;;;;;5094580;28;20065;-46
2022/01/04 08:20:23;;;;;;;1.58;0.88;;;9.40;99.90;;;;;;5094331;28;20061;-46
2022/01/04 08:22:48;;;;;;;2.78;1.13;;;9.50;99.90;;;;;;5076050;28;20020;-46
2022/01/04 08:25:14;;;;;;;2.42;1.15;;;9.50;99.90;;;;;;5075045;28;20020;-46
2022/01/04 08:27:40;;;;;;;3.25;1.60;;;9.50;99.90;;;;;;5073023;28;20081;-47
2022/01/04 08:30:09;;;;;;;2.33;1.73;;;9.40;99.90;;;;;;5072662;28;20024;-45
2022/01/04 08:32:37;;;;;;;3.78;2.58;;;9.40;99.90;;;;;;5074167;28;20028;-45
2022/01/04 08:35:03;;;;;;;3.47;2.40;;;9.40;99.90;;;;;;5091944;28;20130;-46
2022/01/04 08:37:29;;;;;;;3.40;2.30;;;9.50;99.90;;;;;;5093228;28;20020;-47
2022/01/04 08:39:55;;;;;;;4.05;2.50;;;9.50;99.90;;;;;;5075643;28;20046;-46
2022/01/04 08:42:24;;;;;;;5.53;2.33;;;9.50;99.90;;;;;;5075845;28;20020;-46
2022/01/04 08:44:50;;;;;;;3.38;2.25;;;9.50;99.90;;;;;;5075590;28;20028;-46
2022/01/04 08:47:16;;;;;;;10.15;2.75;;;9.40;99.90;;;;;;5075493;28;20035;-45
2022/01/04 08:49:42;;;;;;;3.85;2.22;;;9.50;99.90;;;;;;5093570;28;20020;-47
2022/01/04 08:52:08;;;;;;;3.78;2.10;;;9.50;99.90;;;;;;5093379;28;20055;-46
2022/01/04 08:54:34;;;;;;;5.43;1.95;;;9.50;99.90;;;;;;5093523;28;20024;-46
2022/01/04 08:57:00;;;;;;;3.47;1.80;;;9.50;99.90;;;;;;5093639;28;20115;-46
2022/01/04 08:59:27;;;;;;;4.18;2.30;;;9.50;99.90;;;;;;5075442;28;20105;-47
2022/01/04 09:01:54;;;;;;;3.97;2.25;;;9.50;99.90;;;;;;5093385;28;20024;-46
2022/01/04 09:04:21;;;;;;;5.72;2.92;;;9.60;99.90;;;;;;5093401;28;20028;-45
2022/01/04 09:06:46;;;;;;;5.07;2.90;;;9.60;99.90;;;;;;5075597;28;20078;-46
2022/01/04 09:09:12;;;;;;;9.18;3.20;;;9.70;99.90;;;;;;5093584;28;20028;-45
2022/01/04 09:11:38;;;;;;;5.85;3.13;;;9.70;99.90;;;;;;5076194;28;20024;-45
2022/01/04 09:14:21;;;;;;;4.85;2.83;;;9.70;99.90;;;;;;5075289;28;20020;-46
2022/01/04 09:19:32;;;;;;;4.93;2.45;;;9.70;99.90;;;;;;5093313;28;20081;-46
2022/01/04 09:21:57;;;;;;;4.03;2.72;;;9.70;99.90;;;;;;5075485;28;20024;-45
2022/01/04 09:24:24;;;;;;;5.40;3.08;;;9.70;99.90;;;;;;5093303;28;20021;-48
2022/01/04 09:26:49;;;;;;;1.92;1.50;;;9.80;99.90;;;;;;5093166;28;20421;-46
2022/01/04 09:29:19;;;;;;;3.25;1.40;;;9.80;99.90;;;;;;5093257;28;20031;-45
2022/01/04 09:31:47;;;;;;;2.30;1.38;;;9.90;99.90;;;;;;5075088;28;20032;-45
2022/01/04 09:34:13;;;;;;;1.60;1.33;;;9.90;99.90;;;;;;5093141;28;20045;-46
2022/01/04 09:36:39;;;;;;;2.80;1.45;;;9.90;99.90;;;;;;5074895;28;20100;-46
2022/01/04 09:39:09;;;;;;;2.70;1.55;;;9.90;99.90;;;;;;5093293;28;20032;-46
2022/01/04 09:41:36;;;;;;;2.78;1.50;;;9.90;99.90;;;;;;5075044;28;20021;-46
2022/01/04 09:44:02;;;;;;;2.10;1.20;;;9.90;99.90;;;;;;5093025;28;20112;-46
2022/01/04 09:46:29;;;;;;;2.25;1.00;;;9.80;99.90;;;;;;5093363;28;20024;-46
2022/01/04 09:48:55;;;;;;;1.80;1.10;;;9.80;99.90;;;;;;5093131;28;20027;-46
2022/01/04 09:51:21;;;;;;;0.98;0.80;;;9.80;99.90;;;;;;5074982;28;20054;-46
2022/01/04 09:53:46;;;;;;;1.48;1.08;;;9.80;99.90;;;;;;5075218;28;20474;-46
2022/01/04 09:56:12;;;;;;;2.17;0.90;;;9.80;99.90;;;;;;5092817;28;20024;-47
2022/01/04 09:58:38;;;;;;;2.13;1.20;;;9.80;99.90;;;;;;5092961;28;20028;-46
2022/01/04 10:01:04;;;;;;;4.20;1.23;;;9.80;99.90;;;;;;5092933;28;20103;-47
2022/01/04 10:03:31;;;;;;;1.73;1.08;;;9.80;99.90;;;;;;5093715;28;20107;-46
2022/01/04 10:06:09;;;;;;;1.20;0.77;;;9.80;99.90;;;;;;5096531;28;20038;-47
2022/01/04 10:08:52;;;;;;;1.60;1.00;;;9.90;99.90;;;;;;5096620;28;20031;-46
2022/01/04 10:11:44;;;;;;;1.65;1.38;;;9.90;99.90;;;;;;5096833;28;20073;-48
2022/01/04 10:14:27;;;;;;;;;;;9.80;99.90;;;;;;5079023;28;20027;-46
2022/01/04 10:16:58;;;;;;;1.52;0.90;;;9.90;99.90;;;;;;5096213;28;19911;-47
2022/01/04 10:19:34;;;;;;;1.83;1.30;;;9.90;99.90;;;;;;5078159;28;20042;-46
2022/01/04 10:22:18;;;;;;;1.85;0.70;;;9.80;99.90;;;;;;5078225;28;20658;-46
2022/01/04 10:24:50;;;;;;;0.63;0.63;;;9.80;99.90;;;;;;5078131;28;20016;-49
2022/01/04 10:27:22;;;;;;;1.35;0.77;;;9.80;99.90;;;;;;5077952;28;20034;-47
2022/01/04 10:29:48;;;;;;;1.60;0.65;;;9.90;99.90;;;;;;5096400;28;20035;-46
2022/01/04 10:32:14;;;;;;;1.02;0.68;;;9.80;99.90;;;;;;5077910;28;20056;-46
2022/01/04 10:34:48;;;;;;;3.10;0.90;;;9.80;99.90;;;;;;5077894;28;20028;-47
2022/01/04 10:37:34;;;;;;;1.20;0.90;;;9.80;99.90;;;;;;5078856;28;20024;-46
2022/01/04 10:40:06;;;;;;;2.38;0.80;;;9.80;99.90;;;;;;5077818;28;20035;-48
2022/01/04 10:42:32;;;;;;;1.42;0.52;;;9.80;99.90;;;;;;5078493;28;20028;-47
2022/01/04 10:44:58;;;;;;;0.50;0.50;;;9.90;99.90;;;;;;5096081;28;20393;-46
2022/01/04 10:47:30;;;;;;;2.40;0.98;;;9.90;99.90;;;;;;5077865;28;20024;-46
2022/01/04 10:49:56;;;;;;;2.17;0.85;;;9.90;99.90;;;;;;5095668;28;20024;-46
2022/01/04 10:52:31;;;;;;;0.63;0.60;;;9.90;99.90;;;;;;5095721;28;20081;-47
2022/01/04 10:55:13;;;;;;;2.47;1.52;;;9.90;99.90;;;;;;5077496;28;20035;-46
2022/01/04 10:57:39;;;;;;;4.65;2.25;;;9.90;99.90;;;;;;5095626;28;20020;-47
2022/01/04 11:00:22;;;;;;;5.43;2.97;;;9.90;99.90;;;;;;5077610;28;20034;-47
2022/01/04 11:02:48;;;;;;;4.30;1.85;;;9.90;99.90;;;;;;5078205;28;20073;-48
2022/01/04 11:05:16;;;;;;;2.00;1.13;;;9.90;99.90;;;;;;5095425;28;20020;-48
2022/01/04 11:08:02;;;;;;;3.97;2.53;;;9.90;99.90;;;;;;5095314;28;20089;-47
2022/01/04 11:10:35;;;;;;;7.40;3.90;;;10.00;99.90;;;;;;5077160;28;20020;-50
2022/01/04 11:13:01;;;;;;;4.85;1.70;;;9.90;99.90;;;;;;5095204;28;20077;-48
2022/01/04 11:15:28;;;;;;;3.08;1.60;;;9.80;99.90;;;;;;5095314;28;20026;-47
2022/01/04 11:17:55;;;;;;;4.88;2.22;;;9.80;99.90;;;;;;5077287;28;20474;-46
2022/01/04 11:20:21;;;;;;;2.78;1.10;;;9.90;99.90;;;;;;5077968;28;20020;-49
2022/01/04 11:22:48;;;;;;;1.95;1.10;;;9.90;99.90;;;;;;5077309;28;20024;-47
2022/01/04 11:25:16;;;;;;;4.20;2.25;;;9.90;99.90;;;;;;5076984;28;20026;-47
2022/01/04 11:27:43;;;;;;;2.65;1.50;;;9.90;99.90;;;;;;5094829;28;20020;-47
2022/01/04 11:30:41;;;;;;;3.92;1.92;;;9.80;99.90;;;;;;5094907;28;20028;-49
2022/01/04 11:33:13;;;;;;;6.88;2.60;;;9.80;99.90;;;;;;5095087;28;20038;-47
2022/01/04 11:35:39;;;;;;;3.15;1.70;;;9.80;99.90;;;;;;5094746;28;20066;-50
2022/01/04 11:38:04;;;;;;;7.57;3.92;;;9.80;99.90;;;;;;5077014;28;20024;-50
2022/01/04 11:40:41;;;;;;;3.13;2.30;;;9.80;99.90;;;;;;5076760;28;20073;-48
2022/01/04 11:43:28;;;;;;;2.97;2.10;;;9.80;99.90;;;;;;5077048;28;20028;-51
2022/01/04 11:45:54;;;;;;;5.13;3.78;;;9.90;99.90;;;;;;5076501;28;20024;-50
2022/01/04 11:48:43;;;;;;;14.20;6.68;;;9.90;99.90;;;;;;5094778;28;20024;-47
2022/01/04 11:51:30;;;;;;;13.73;7.07;;;9.90;99.90;;;;;;5076510;28;20032;-46
2022/01/04 11:54:14;;;;;;;21.73;10.40;;;9.90;99.90;;;;;;5076338;28;20032;-47
2022/01/04 11:56:56;;;;;;;37.35;16.80;;;9.80;99.90;;;;;;5076274;28;20028;-49
2022/01/04 11:59:22;;;;;;;43.17;18.80;;;9.80;99.90;;;;;;5094373;28;20027;-46
2022/01/04 12:01:48;;;;;;;10.60;5.70;;;9.80;99.90;;;;;;5076683;28;20111;-48
2022/01/04 12:04:48;;;;;;;4.53;2.63;;;9.80;99.90;;;;;;5094402;28;20099;-47
2022/01/04 12:07:39;;;;;;;21.58;8.77;;;9.90;99.90;;;;;;5076918;28;20059;-47
2022/01/04 12:10:20;;;;;;;8.75;4.07;;;9.80;99.90;;;;;;5076006;28;20020;-46
2022/01/04 12:12:56;;;;;;;10.30;4.97;;;9.80;99.90;;;;;;5076139;28;20397;-47
2022/01/04 12:15:49;;;;;;;10.27;4.22;;;9.80;99.90;;;;;;5076227;28;20051;-51
2022/01/04 12:18:23;;;;;;;3.00;1.65;;;9.80;99.90;;;;;;5094222;28;20020;-49
2022/01/04 12:20:50;;;;;;;13.88;5.43;;;9.70;99.90;;;;;;5075959;28;20054;-48
2022/01/04 12:23:31;;;;;;;2.85;1.50;;;9.70;99.90;;;;;;5094317;28;20020;-47
2022/01/04 12:26:05;;;;;;;7.40;3.50;;;9.70;99.90;;;;;;5093525;28;20073;-47
2022/01/04 12:28:36;;;;;;;11.60;5.32;;;9.60;99.90;;;;;;5093912;28;20026;-52
2022/01/04 12:31:30;;;;;;;8.75;4.20;;;9.60;99.90;;;;;;5080632;28;20016;-49
2022/01/04 12:34:09;;;;;;;5.32;2.20;;;9.60;99.90;;;;;;5103785;28;20028;-46
2022/01/04 12:36:41;;;;;;;4.90;2.67;;;9.50;99.90;;;;;;5080725;28;20028;-52
2022/01/04 12:39:15;;;;;;;4.78;2.92;;;9.60;99.90;;;;;;5094207;28;20016;-49
2022/01/04 12:41:43;;;;;;;4.95;2.95;;;9.50;99.90;;;;;;5075508;28;20024;-47
2022/01/04 12:44:10;;;;;;;5.95;3.88;;;9.50;99.90;;;;;;5075910;28;20020;-47
2022/01/04 12:46:41;;;;;;;2.58;1.63;;;9.50;99.90;;;;;;5075504;28;20490;-48
2022/01/04 12:49:13;;;;;;;1.20;0.80;;;9.50;99.90;;;;;;5093652;28;20020;-47
2022/01/04 12:51:44;;;;;;;2.88;1.25;;;9.50;99.90;;;;;;5075632;28;20070;-49
2022/01/04 12:54:17;;;;;;;2.72;1.63;;;9.50;99.90;;;;;;5093890;28;20020;-47
2022/01/04 12:56:53;;;;;;;1.70;0.65;;;9.50;99.90;;;;;;5093265;28;20031;-46
2022/01/04 12:59:24;;;;;;;1.23;0.85;;;9.50;99.90;;;;;;5093655;28;20027;-49
2022/01/04 13:01:56;;;;;;;0.88;0.60;;;9.50;99.90;;;;;;5093518;28;20028;-47
2022/01/04 13:04:23;;;;;;;;;;;9.50;99.90;;;;;;5075886;28;20031;-47
2022/01/04 13:06:49;;;;;;;1.65;1.35;;;9.50;99.90;;;;;;5093578;28;19951;-47
2022/01/04 13:09:21;;;;;;;1.27;0.82;;;9.40;99.90;;;;;;5093649;28;20053;-48
2022/01/04 13:11:51;;;;;;;;;;;9.40;99.90;;;;;;5075757;28;20047;-48
2022/01/04 13:14:25;;;;;;;1.35;0.70;;;9.40;99.90;;;;;;5093736;28;20289;-48
2022/01/04 13:16:59;;;;;;;3.28;0.88;;;9.50;99.90;;;;;;5075137;28;20035;-48
2022/01/04 13:19:25;;;;;;;13.65;5.45;;;9.50;99.90;;;;;;5075145;28;20020;-47
2022/01/04 13:22:10;;;;;;;43.22;14.70;;;9.50;99.90;;;;;;5075274;28;20031;-48
2022/01/04 13:24:42;;;;;;;21.17;8.90;;;9.50;99.90;;;;;;5075118;28;20020;-47
2022/01/04 13:27:41;;;;;;;10.15;5.03;;;9.50;99.90;;;;;;5075491;28;20028;-47
2022/01/04 13:30:14;;;;;;;5.03;3.08;;;9.50;99.90;;;;;;5075164;28;20040;-49